createdAt,value
2022-12-16T00:00:11.768Z,4.95
2022-12-16T00:02:39.291Z,4.57
2022-12-16T00:05:07.073Z,4.47
2022-12-16T00:07:35.407Z,5.00
2022-12-16T00:10:02.973Z,4.60
2022-12-16T00:12:30.307Z,3.90
2022-12-16T00:14:57.664Z,4.10
2022-12-16T00:17:25.050Z,4.30
2022-12-16T00:19:52.423Z,4.72
2022-12-16T00:22:19.742Z,4.78
2022-12-16T00:24:47.175Z,4.35
2022-12-16T00:27:14.507Z,4.30
2022-12-16T00:29:41.825Z,4.10
2022-12-16T00:32:09.277Z,3.72
2022-12-16T00:34:36.585Z,4.15
2022-12-16T00:37:06.564Z,4.03
2022-12-16T00:39:33.940Z,4.53
2022-12-16T00:42:01.251Z,4.18
2022-12-16T00:44:28.620Z,4.10
2022-12-16T00:46:55.972Z,4.00
2022-12-16T00:49:23.285Z,3.83
2022-12-16T00:51:50.696Z,3.55
2022-12-16T00:54:17.997Z,3.63
2022-12-16T00:56:45.289Z,3.50
2022-12-16T00:59:12.638Z,3.63
2022-12-16T01:01:40.146Z,3.28
2022-12-16T01:04:07.573Z,3.42
2022-12-16T01:06:35.623Z,3.40
2022-12-16T01:09:03.120Z,3.05
2022-12-16T01:11:30.414Z,3.38
2022-12-16T01:13:59.289Z,2.90
2022-12-16T01:16:29.405Z,3.08
2022-12-16T01:18:56.857Z,2.83
2022-12-16T01:21:24.167Z,2.80
2022-12-16T01:23:52.055Z,2.92
2022-12-16T01:26:22.617Z,2.92
2022-12-16T01:28:50.009Z,2.50
2022-12-16T01:31:19.332Z,2.30
2022-12-16T01:33:46.897Z,2.38
2022-12-16T01:36:14.401Z,2.40
2022-12-16T01:38:44.252Z,2.63
2022-12-16T01:41:13.681Z,2.75
2022-12-16T01:43:42.759Z,2.25
2022-12-16T01:46:13.324Z,2.72
2022-12-16T01:49:06.906Z,2.45
2022-12-16T01:51:47.521Z,2.33
2022-12-16T01:57:13.791Z,2.65
2022-12-16T01:59:45.707Z,2.80
2022-12-16T02:05:01.486Z,2.75
2022-12-16T02:07:28.835Z,3.20
2022-12-16T02:09:56.631Z,3.15
2022-12-16T02:15:37.716Z,3.40
2022-12-16T02:18:33.409Z,3.90
2022-12-16T02:21:44.053Z,4.30
2022-12-16T02:24:39.749Z,3.70
2022-12-16T02:30:47.581Z,4.13
2022-12-16T02:33:41.624Z,4.13
2022-12-16T02:36:22.032Z,4.22
2022-12-16T02:39:27.730Z,3.65
2022-12-16T02:42:07.336Z,3.53
2022-12-16T02:47:34.721Z,3.95
2022-12-16T02:50:02.969Z,4.82
2022-12-16T02:52:34.224Z,4.88
2022-12-16T02:55:09.143Z,4.70
2022-12-16T02:57:36.412Z,4.90
2022-12-16T03:00:17.110Z,4.60
2022-12-16T03:02:57.020Z,5.05
2022-12-16T03:05:37.594Z,4.57
2022-12-16T03:08:13.778Z,5.15
2022-12-16T03:10:46.664Z,5.32
2022-12-16T03:13:17.405Z,5.22
2022-12-16T03:16:07.979Z,5.53
2022-12-16T03:21:25.602Z,5.25
2022-12-16T03:24:02.835Z,5.68
2022-12-16T03:26:40.986Z,5.15
2022-12-16T03:29:14.309Z,5.63
2022-12-16T03:31:49.894Z,5.22
2022-12-16T03:37:24.401Z,4.93
2022-12-16T03:39:55.508Z,4.72
2022-12-16T03:42:24.113Z,5.47
2022-12-16T03:44:51.473Z,8.00
2022-12-16T03:47:23.583Z,5.00
2022-12-16T03:49:51.567Z,5.15
2022-12-16T03:55:03.807Z,4.90
2022-12-16T03:57:31.096Z,5.32
2022-12-16T03:59:58.397Z,5.65
2022-12-16T04:02:25.896Z,4.90
2022-12-16T04:04:53.391Z,5.35
2022-12-16T04:10:07.429Z,5.25
2022-12-16T04:12:53.590Z,4.90
2022-12-16T04:15:39.525Z,4.88
2022-12-16T04:18:35.660Z,5.20
2022-12-16T04:21:22.498Z,4.93
2022-12-16T04:27:17.134Z,5.00
2022-12-16T04:30:03.143Z,5.45
2022-12-16T04:32:50.933Z,5.78
2022-12-16T04:35:37.276Z,5.78
2022-12-16T04:38:23.172Z,5.82
2022-12-16T04:44:12.779Z,6.50
2022-12-16T04:47:18.077Z,6.30
2022-12-16T04:50:04.333Z,6.75
2022-12-16T04:52:50.274Z,7.30
2022-12-16T04:55:36.254Z,7.20
2022-12-16T05:01:36.590Z,7.85
2022-12-16T05:04:22.454Z,8.65
2022-12-16T05:07:08.209Z,8.48
2022-12-16T05:09:54.436Z,8.25
2022-12-16T05:12:40.391Z,8.73
2022-12-16T05:15:26.569Z,7.95
2022-12-16T05:18:12.291Z,8.55
2022-12-16T05:20:58.260Z,8.88
2022-12-16T05:23:44.254Z,9.90
2022-12-16T05:26:30.725Z,8.82
2022-12-16T05:29:16.682Z,8.90
2022-12-16T05:35:06.140Z,8.93
2022-12-16T05:37:52.102Z,9.15
2022-12-16T05:40:38.094Z,8.60
2022-12-16T05:43:24.051Z,8.95
2022-12-16T05:46:10.043Z,9.82
2022-12-16T05:48:55.798Z,8.95
2022-12-16T05:51:41.729Z,9.43
2022-12-16T05:54:27.805Z,9.50
2022-12-16T05:57:13.736Z,8.80
2022-12-16T05:59:59.726Z,9.70
2022-12-16T06:02:45.863Z,9.57
2022-12-16T06:05:33.119Z,10.55
2022-12-16T06:08:19.239Z,10.20
2022-12-16T06:11:05.214Z,10.65
2022-12-16T06:13:51.142Z,10.40
2022-12-16T06:16:37.094Z,11.30
2022-12-16T06:19:23.222Z,10.65
2022-12-16T06:22:09.216Z,10.90
2022-12-16T06:24:55.161Z,11.65
2022-12-16T06:27:41.373Z,12.63
2022-12-16T06:30:28.399Z,12.55
2022-12-16T06:33:14.367Z,13.07
2022-12-16T06:36:00.257Z,13.38
2022-12-16T06:38:46.336Z,14.10
2022-12-16T06:41:35.010Z,14.15
2022-12-16T06:44:31.691Z,13.90
2022-12-16T06:47:17.855Z,14.38
2022-12-16T06:50:03.672Z,15.50
2022-12-16T06:52:49.690Z,15.50
2022-12-16T06:55:35.662Z,15.50
2022-12-16T06:58:24.073Z,14.68
2022-12-16T07:01:10.400Z,14.52
2022-12-16T07:03:56.297Z,14.98
2022-12-16T07:06:42.476Z,15.05
2022-12-16T07:09:29.025Z,15.13
2022-12-16T07:12:15.053Z,14.20
2022-12-16T07:15:00.847Z,14.15
2022-12-16T07:17:46.864Z,12.98
2022-12-16T07:20:32.707Z,14.27
2022-12-16T07:23:20.039Z,14.23
2022-12-16T07:26:06.100Z,13.10
2022-12-16T07:28:51.926Z,12.95
2022-12-16T07:31:37.884Z,13.25
2022-12-16T07:34:23.610Z,14.55
2022-12-16T07:37:12.178Z,12.93
2022-12-16T07:40:14.599Z,13.77
2022-12-16T07:43:21.335Z,13.05
2022-12-16T07:46:07.220Z,14.38
2022-12-16T07:48:52.986Z,13.68
2022-12-16T07:51:38.578Z,13.30
2022-12-16T07:54:33.376Z,13.30
2022-12-16T07:57:19.043Z,13.75
2022-12-16T08:00:05.079Z,12.98
2022-12-16T08:02:58.315Z,14.88
2022-12-16T08:05:44.298Z,14.25
2022-12-16T08:08:30.330Z,13.90
2022-12-16T08:11:16.290Z,13.15
2022-12-16T08:14:02.467Z,12.98
2022-12-16T08:16:48.565Z,13.20
2022-12-16T08:19:34.644Z,14.05
2022-12-16T08:22:20.557Z,13.13
2022-12-16T08:25:06.539Z,12.65
2022-12-16T08:27:52.370Z,14.23
2022-12-16T08:30:38.668Z,12.90
2022-12-16T08:33:24.758Z,14.25
2022-12-16T08:36:11.335Z,13.07
2022-12-16T08:38:57.381Z,12.82
2022-12-16T08:41:44.022Z,13.18
2022-12-16T08:44:30.207Z,13.90
2022-12-16T08:47:16.026Z,14.57
2022-12-16T08:50:02.512Z,14.23
2022-12-16T08:52:50.391Z,13.82
2022-12-16T08:55:36.460Z,14.00
2022-12-16T08:58:22.387Z,14.05
2022-12-16T09:01:08.577Z,13.98
2022-12-16T09:03:55.378Z,13.15
2022-12-16T09:06:41.523Z,12.85
2022-12-16T09:09:28.669Z,11.77
2022-12-16T09:12:14.414Z,11.50
2022-12-16T09:15:00.433Z,12.25
2022-12-16T09:17:46.264Z,12.15
2022-12-16T09:20:32.240Z,12.40
2022-12-16T09:23:24.211Z,12.02
2022-12-16T09:26:10.308Z,12.77
2022-12-16T09:28:57.417Z,12.90
2022-12-16T09:31:43.930Z,11.75
2022-12-16T09:34:29.933Z,10.40
2022-12-16T09:37:15.834Z,10.27
2022-12-16T09:40:01.847Z,10.25
2022-12-16T09:43:09.718Z,10.15
2022-12-16T09:46:14.893Z,9.75
2022-12-16T09:49:23.407Z,10.35
2022-12-16T09:52:16.510Z,9.32
2022-12-16T09:55:06.323Z,10.02
2022-12-16T09:57:55.678Z,8.98
2022-12-16T10:00:45.664Z,9.07
2022-12-16T10:03:40.381Z,9.68
2022-12-16T10:07:00.614Z,9.70
2022-12-16T10:09:49.385Z,8.75
2022-12-16T10:12:38.335Z,8.95
2022-12-16T10:15:50.544Z,9.68
2022-12-16T10:19:03.013Z,9.23
2022-12-16T10:21:58.181Z,9.55
2022-12-16T10:25:27.044Z,9.38
2022-12-16T10:28:25.719Z,9.23
2022-12-16T10:31:12.130Z,9.55
2022-12-16T10:33:59.350Z,9.05
2022-12-16T10:36:46.149Z,9.23
2022-12-16T10:39:47.484Z,8.68
2022-12-16T10:42:47.099Z,8.57
2022-12-16T10:45:44.272Z,7.82
2022-12-16T10:48:32.011Z,8.57
2022-12-16T10:51:31.805Z,8.98
2022-12-16T10:54:31.703Z,8.52
2022-12-16T10:57:31.293Z,8.85
2022-12-16T11:00:37.391Z,8.82
2022-12-16T11:03:41.553Z,9.60
2022-12-16T11:06:29.362Z,9.45
2022-12-16T11:09:15.260Z,10.10
2022-12-16T11:12:01.067Z,10.23
2022-12-16T11:15:05.676Z,10.60
2022-12-16T11:17:52.765Z,10.88
2022-12-16T11:20:47.949Z,10.10
2022-12-16T11:23:34.385Z,9.85
2022-12-16T11:26:35.875Z,11.73
2022-12-16T11:29:35.966Z,9.85
2022-12-16T11:32:50.586Z,10.82
2022-12-16T11:35:41.216Z,11.98
2022-12-16T11:38:37.554Z,12.00
2022-12-16T11:41:24.623Z,11.63
2022-12-16T11:44:12.573Z,11.23
2022-12-16T11:46:58.475Z,12.02
2022-12-16T11:49:51.158Z,12.00
2022-12-16T11:52:39.568Z,11.85
2022-12-16T11:56:03.384Z,10.90
2022-12-16T11:58:43.144Z,11.15
2022-12-16T12:01:51.300Z,10.88
2022-12-16T12:04:37.856Z,10.32
2022-12-16T12:07:41.226Z,11.00
2022-12-16T12:11:02.779Z,10.93
2022-12-16T12:14:05.518Z,10.88
2022-12-16T12:17:05.507Z,11.98
2022-12-16T12:20:17.369Z,11.38
2022-12-16T12:23:04.792Z,12.13
2022-12-16T12:26:32.964Z,11.68
2022-12-16T12:29:34.049Z,11.38
2022-12-16T12:32:44.356Z,11.10
2022-12-16T12:35:36.407Z,11.50
2022-12-16T12:38:30.376Z,11.23
2022-12-16T12:41:19.784Z,12.02
2022-12-16T12:44:13.034Z,10.60
2022-12-16T12:47:11.462Z,10.93
2022-12-16T12:50:04.823Z,10.85
2022-12-16T12:53:22.152Z,10.93
2022-12-16T12:56:45.384Z,10.30
2022-12-16T13:00:03.149Z,10.13
2022-12-16T13:03:03.720Z,10.20
2022-12-16T13:05:52.710Z,11.55
2022-12-16T13:09:03.136Z,11.18
2022-12-16T13:11:49.019Z,11.25
2022-12-16T13:14:50.363Z,10.10
2022-12-16T13:17:39.689Z,11.98
2022-12-16T13:20:50.443Z,11.00
2022-12-16T13:23:46.608Z,10.63
2022-12-16T13:26:38.812Z,10.98
2022-12-16T13:32:41.623Z,10.65
2022-12-16T13:35:27.465Z,10.48
2022-12-16T13:38:14.935Z,11.23
2022-12-16T13:41:13.212Z,10.55
2022-12-16T13:44:13.874Z,10.57
2022-12-16T13:47:12.138Z,10.00
2022-12-16T13:50:09.866Z,10.40
2022-12-16T13:53:15.298Z,11.00
2022-12-16T13:56:19.018Z,10.70
2022-12-16T13:59:08.253Z,10.20
2022-12-16T14:02:01.857Z,10.88
2022-12-16T14:05:16.329Z,10.65
2022-12-16T14:08:02.993Z,10.07
2022-12-16T14:10:53.282Z,10.52
2022-12-16T14:14:15.039Z,11.50
2022-12-16T14:17:11.017Z,12.05
2022-12-16T14:20:12.518Z,10.45
2022-12-16T14:23:55.267Z,11.87
2022-12-16T14:26:35.539Z,11.52
2022-12-16T14:29:30.339Z,11.35
2022-12-16T14:32:16.407Z,12.20
2022-12-16T14:35:02.252Z,12.75
2022-12-16T14:37:53.790Z,12.07
2022-12-16T14:40:44.422Z,11.50
2022-12-16T14:43:37.000Z,11.90
2022-12-16T14:46:23.545Z,11.75
2022-12-16T14:49:10.383Z,12.73
2022-12-16T14:52:07.062Z,12.52
2022-12-16T14:55:01.728Z,11.77
2022-12-16T14:57:50.653Z,12.68
2022-12-16T15:00:42.296Z,12.55
2022-12-16T15:03:44.543Z,12.27
2022-12-16T15:06:40.659Z,12.95
2022-12-16T15:09:36.188Z,13.07
2022-12-16T15:12:22.464Z,12.35
2022-12-16T15:15:10.300Z,12.57
2022-12-16T15:18:19.380Z,13.45
2022-12-16T15:21:11.242Z,13.20
2022-12-16T15:24:00.254Z,12.35
2022-12-16T15:26:49.728Z,13.25
2022-12-16T15:30:02.096Z,12.77
2022-12-16T15:32:53.576Z,13.02
2022-12-16T15:35:43.699Z,13.07
2022-12-16T15:38:51.465Z,13.30
2022-12-16T15:41:52.174Z,12.63
2022-12-16T15:44:46.267Z,13.02
2022-12-16T15:47:50.491Z,14.00
2022-12-16T15:50:47.493Z,12.43
2022-12-16T15:53:48.892Z,14.43
2022-12-16T15:56:41.981Z,13.40
2022-12-16T15:59:45.260Z,12.60
2022-12-16T16:02:44.166Z,13.93
2022-12-16T16:05:41.685Z,13.95
2022-12-16T16:08:30.826Z,14.55
2022-12-16T16:11:16.871Z,13.73
2022-12-16T16:14:08.287Z,14.32
2022-12-16T16:17:15.164Z,15.23
2022-12-16T16:20:03.826Z,14.80
2022-12-16T16:22:50.202Z,15.10
2022-12-16T16:25:35.915Z,15.40
2022-12-16T16:28:21.929Z,14.32
2022-12-16T16:31:07.897Z,15.23
2022-12-16T16:33:53.823Z,16.27
2022-12-16T16:36:39.478Z,14.57
2022-12-16T16:39:25.382Z,15.30
2022-12-16T16:42:11.196Z,16.25
2022-12-16T16:44:57.225Z,15.98
2022-12-16T16:47:43.288Z,15.90
2022-12-16T16:50:33.229Z,16.98
2022-12-16T16:53:19.187Z,17.17
2022-12-16T16:56:22.543Z,16.73
2022-12-16T16:59:08.124Z,17.25
2022-12-16T17:01:54.468Z,16.85
2022-12-16T17:04:40.618Z,16.83
2022-12-16T17:07:26.297Z,18.02
2022-12-16T17:10:12.292Z,18.45
2022-12-16T17:13:04.431Z,17.88
2022-12-16T17:15:56.200Z,17.83
2022-12-16T17:18:46.649Z,18.53
2022-12-16T17:21:33.789Z,18.08
2022-12-16T17:24:19.809Z,19.10
2022-12-16T17:27:08.496Z,18.33
2022-12-16T17:29:54.506Z,18.50
2022-12-16T17:32:40.926Z,17.48
2022-12-16T17:35:31.802Z,17.83
2022-12-16T17:38:17.776Z,18.83
2022-12-16T17:41:10.433Z,18.88
2022-12-16T17:43:56.367Z,19.98
2022-12-16T17:46:43.572Z,19.92
2022-12-16T17:49:29.601Z,19.00
2022-12-16T17:52:18.763Z,19.58
2022-12-16T17:55:04.697Z,19.85
2022-12-16T17:57:50.607Z,19.17
2022-12-16T18:00:36.445Z,19.20
2022-12-16T18:03:23.314Z,19.42
2022-12-16T18:06:15.300Z,19.52
2022-12-16T18:09:01.165Z,19.00
2022-12-16T18:11:47.068Z,19.80
2022-12-16T18:14:32.982Z,19.90
2022-12-16T18:17:18.704Z,19.85
2022-12-16T18:20:05.981Z,20.60
2022-12-16T18:22:51.710Z,20.67
2022-12-16T18:25:37.701Z,20.77
2022-12-16T18:28:23.744Z,21.05
2022-12-16T18:31:09.786Z,20.25
2022-12-16T18:33:55.933Z,20.27
2022-12-16T18:36:41.888Z,20.67
2022-12-16T18:39:30.853Z,20.10
2022-12-16T18:42:16.639Z,20.35
2022-12-16T18:45:02.682Z,20.55
2022-12-16T18:48:09.708Z,20.90
2022-12-16T18:50:56.245Z,21.42
2022-12-16T18:53:42.237Z,20.58
2022-12-16T18:56:28.596Z,21.25
2022-12-16T18:59:14.615Z,20.75
2022-12-16T19:02:00.456Z,20.63
2022-12-16T19:04:46.396Z,19.48
2022-12-16T19:07:33.978Z,19.95
2022-12-16T19:10:20.180Z,20.40
2022-12-16T19:13:06.358Z,21.35
2022-12-16T19:15:52.778Z,20.25
2022-12-16T19:18:38.710Z,19.55
2022-12-16T19:21:24.725Z,20.80
2022-12-16T19:24:10.866Z,19.33
2022-12-16T19:26:56.916Z,19.80
2022-12-16T19:29:43.434Z,20.20
2022-12-16T19:32:29.494Z,20.02
2022-12-16T19:35:15.869Z,20.08
2022-12-16T19:38:01.589Z,21.00
2022-12-16T19:40:47.596Z,19.27
2022-12-16T19:43:34.976Z,20.55
2022-12-16T19:46:21.161Z,20.30
2022-12-16T19:49:07.538Z,20.77
2022-12-16T19:51:56.257Z,19.83
2022-12-16T19:54:42.456Z,19.58
2022-12-16T19:57:31.377Z,19.20
2022-12-16T20:00:19.459Z,19.42
2022-12-16T20:03:05.820Z,20.88
2022-12-16T20:05:51.821Z,19.13
2022-12-16T20:08:37.953Z,18.58
2022-12-16T20:11:28.164Z,19.73
2022-12-16T20:14:16.878Z,26.90
2022-12-16T20:17:02.509Z,19.80
2022-12-16T20:19:48.662Z,19.48
2022-12-16T20:22:35.081Z,18.45
2022-12-16T20:25:20.880Z,18.27
2022-12-16T20:28:06.924Z,18.25
2022-12-16T20:30:53.602Z,18.90
2022-12-16T20:33:42.680Z,17.77
2022-12-16T20:36:29.058Z,18.17
2022-12-16T20:39:14.985Z,18.88
2022-12-16T20:42:00.825Z,19.23
2022-12-16T20:44:47.086Z,17.92
2022-12-16T20:47:36.314Z,17.88
2022-12-16T20:50:22.865Z,18.48
2022-12-16T20:53:08.902Z,19.83
2022-12-16T20:55:56.108Z,18.70
2022-12-16T20:58:56.151Z,18.15
2022-12-16T21:04:48.210Z,17.55
2022-12-16T21:07:36.978Z,18.02
2022-12-16T21:10:23.362Z,17.40
2022-12-16T21:13:09.453Z,18.58
2022-12-16T21:15:58.932Z,17.40
2022-12-16T21:18:45.381Z,17.15
2022-12-16T21:21:31.124Z,16.30
2022-12-16T21:24:17.078Z,16.05
2022-12-16T21:27:03.246Z,15.35
2022-12-16T21:29:49.279Z,15.15
2022-12-16T21:32:46.213Z,15.23
2022-12-16T21:35:32.359Z,14.60
2022-12-16T21:38:20.178Z,14.20
2022-12-16T21:41:13.190Z,13.25
2022-12-16T21:43:59.549Z,14.10
2022-12-16T21:46:45.713Z,13.02
2022-12-16T21:49:31.764Z,13.73
2022-12-16T21:52:19.117Z,13.85
2022-12-16T21:55:05.077Z,14.13
2022-12-16T21:57:51.038Z,13.50
2022-12-16T22:00:43.731Z,13.82
2022-12-16T22:03:32.572Z,13.40
2022-12-16T22:06:18.398Z,13.40
2022-12-16T22:09:04.521Z,13.07
2022-12-16T22:11:50.647Z,12.73
2022-12-16T22:14:37.654Z,12.73
2022-12-16T22:17:24.489Z,13.23
2022-12-16T22:20:11.194Z,14.07
2022-12-16T22:22:57.472Z,13.77
2022-12-16T22:25:43.406Z,14.65
2022-12-16T22:28:29.384Z,14.65
2022-12-16T22:31:16.411Z,13.18
2022-12-16T22:34:02.693Z,12.50
2022-12-16T22:36:48.394Z,15.02
2022-12-16T22:39:34.373Z,14.38
2022-12-16T22:42:20.480Z,14.98
2022-12-16T22:45:06.177Z,14.77
2022-12-16T22:47:52.139Z,15.50
2022-12-16T22:50:38.148Z,15.73
2022-12-16T22:53:24.186Z,16.90
2022-12-16T22:56:14.363Z,19.35
2022-12-16T22:59:00.201Z,21.35
2022-12-16T23:01:46.286Z,22.80
2022-12-16T23:04:34.050Z,23.08
2022-12-16T23:07:20.083Z,22.35
2022-12-16T23:10:05.801Z,24.08
2022-12-16T23:12:52.392Z,23.52
2022-12-16T23:15:39.128Z,23.60
2022-12-16T23:18:25.361Z,24.95
2022-12-16T23:21:11.340Z,23.63
2022-12-16T23:23:57.172Z,23.42
2022-12-16T23:26:43.369Z,24.33
2022-12-16T23:29:29.345Z,24.80
2022-12-16T23:32:15.317Z,24.27
2022-12-16T23:35:01.213Z,24.08
2022-12-16T23:37:47.283Z,25.05
2022-12-16T23:40:33.391Z,25.00
2022-12-16T23:43:19.532Z,24.45
2022-12-16T23:46:05.484Z,23.98
2022-12-16T23:48:52.433Z,23.33
2022-12-16T23:51:39.273Z,22.13
2022-12-16T23:54:25.265Z,23.33
2022-12-16T23:57:11.308Z,22.45
2022-12-16T23:59:57.290Z,21.40
